This is the latest recevied weather packets stored in our database for station/object W0VI. If no packets are shown the sender has not sent any weather packets the latest 10 day(s).
| Time | Temp. | Humidity | Pressure | Rain* | Wind** | Luminosity | Snow |
|---|---|---|---|---|---|---|---|
| 1787512846 | 25° C | 50% | 1019 hPa | 0 mm | - | 589 W/m² | - |
| 1787512540 | 25.56° C | 48% | 1019.2 hPa | 0 mm | - | 295 W/m² | - |
| 1787512236 | 25° C | 48% | 1019.1 hPa | 0 mm | - | 554 W/m² | - |
| 1787511932 | 25° C | 48% | 1019.1 hPa | 0 mm | - | 584 W/m² | - |
| 1787511627 | 24.44° C | 49% | 1019.3 hPa | 0 mm | - | 591 W/m² | - |
| 1787511325 | 24.44° C | 49% | 1019.4 hPa | 0 mm | - | 579 W/m² | - |
| 1787511020 | 24.44° C | 50% | 1019.4 hPa | 0 mm | - | 574 W/m² | - |
| 1787510720 | 23.89° C | 48% | 1019.6 hPa | 0 mm | - | 573 W/m² | - |
| 1787510415 | 24.44° C | 50% | 1019.4 hPa | 0 mm | - | 564 W/m² | - |
| 1787510111 | 24.44° C | 49% | 1019.4 hPa | 0 mm | - | 599 W/m² | - |
| 1787509808 | 23.89° C | 49% | 1019.6 hPa | 0 mm | - | 588 W/m² | - |
| 1787509503 | 24.44° C | 49% | 1019.5 hPa | 0 mm | - | 425 W/m² | - |
| 1787509199 | 23.89° C | 52% | 1019.7 hPa | 0 mm | - | 533 W/m² | - |
| 1787508888 | 24.44° C | 51% | 1019.9 hPa | 0 mm | - | 588 W/m² | - |
| 1787508584 | 23.89° C | 52% | 1019.9 hPa | 0 mm | - | 614 W/m² | - |
| 1787508279 | 23.89° C | 53% | 1020 hPa | 0 mm | - | 234 W/m² | - |
| 1787507969 | 23.89° C | 53% | 1019.9 hPa | 0 mm | - | 611 W/m² | - |
| 1787507666 | 22.78° C | 55% | 1020 hPa | 0 mm | - | 561 W/m² | - |
| 1787507361 | 22.78° C | 54% | 1020.4 hPa | 0 mm | - | 137 W/m² | - |
| 1787507057 | 23.89° C | 52% | 1020.4 hPa | 0 mm | - | 216 W/m² | - |
| 1787506752 | 22.78° C | 55% | 1020.3 hPa | 0 mm | - | 639 W/m² | - |
| 1787506449 | 23.89° C | 53% | 1020.4 hPa | 0 mm | - | 152 W/m² | - |
| 1787506143 | 23.89° C | 53% | 1020.5 hPa | 0 mm | - | 718 W/m² | - |
| 1787505839 | 22.78° C | 53% | 1020.3 hPa | 0 mm | - | 697 W/m² | - |
| 1787505534 | 23.33° C | 53% | 1020.4 hPa | 0 mm | - | 217 W/m² | - |
* Rain latest hour (hover to see other rain measurements)
** Current wind speed in m/s (hover to see current wind gust speed)